Terminal Aerodrome Forecast
Issued by NWS

Home | Current Version | Previous Version | Text Only | Print | Product List | Glossary On
Versions: 1 2 3 4 5 6 7 8 9 10 11 12 13 14 15 16
000
FTUS46 KSEW 030500
TAFHQM
TAF
KHQM 030520Z 0306/0406 29007KT P6SM SCT010 OVC020
     FM030900 23005KT 4SM BR BKN010 OVC020
     FM031800 23006KT P6SM BKN030 BKN060
     FM032100 25010KT P6SM SCT035 BKN080=

USA.gov is the U.S. government's official web portal to all federal, state and local government web resources and services.